sensor_id;sensor_type;location;lat;lon;timestamp;pressure;altitude;pressure_sealevel;temperature;humidity
73824;BME280;62154;54.914;73.444;2022-10-19T00:01:18;100137.00;;;3.30;100.00
73824;BME280;62154;54.914;73.444;2022-10-19T00:03:47;100186.56;;;3.52;100.00
73824;BME280;62154;54.914;73.444;2022-10-19T00:08:47;100183.00;;;3.51;100.00
73824;BME280;62154;54.914;73.444;2022-10-19T00:11:14;100183.50;;;3.55;100.00
73824;BME280;62154;54.914;73.444;2022-10-19T00:13:41;100175.94;;;3.57;100.00
73824;BME280;62154;54.914;73.444;2022-10-19T00:16:13;100134.28;;;3.30;100.00
73824;BME280;62154;54.914;73.444;2022-10-19T00:18:41;100181.25;;;3.58;100.00
73824;BME280;62154;54.914;73.444;2022-10-19T00:21:14;100123.50;;;3.29;100.00
73824;BME280;62154;54.914;73.444;2022-10-19T00:23:42;100169.94;;;3.53;100.00
73824;BME280;62154;54.914;73.444;2022-10-19T00:26:11;100183.84;;;3.52;100.00
73824;BME280;62154;54.914;73.444;2022-10-19T00:28:38;100170.19;;;3.43;100.00
73824;BME280;62154;54.914;73.444;2022-10-19T00:31:09;100168.59;;;3.49;100.00
73824;BME280;62154;54.914;73.444;2022-10-19T00:33:37;100161.47;;;3.40;100.00
73824;BME280;62154;54.914;73.444;2022-10-19T00:36:04;100178.72;;;3.49;100.00
73824;BME280;62154;54.914;73.444;2022-10-19T00:38:32;100122.53;;;3.13;100.00
73824;BME280;62154;54.914;73.444;2022-10-19T00:41:03;100161.41;;;3.48;100.00
73824;BME280;62154;54.914;73.444;2022-10-19T00:43:30;100158.19;;;3.45;100.00
73824;BME280;62154;54.914;73.444;2022-10-19T00:45:57;100167.56;;;3.50;100.00
73824;BME280;62154;54.914;73.444;2022-10-19T00:48:30;100150.63;;;3.47;100.00
73824;BME280;62154;54.914;73.444;2022-10-19T00:50:58;100139.97;;;3.52;100.00
73824;BME280;62154;54.914;73.444;2022-10-19T00:53:27;100142.06;;;3.50;100.00
73824;BME280;62154;54.914;73.444;2022-10-19T00:55:56;100137.59;;;3.49;100.00
73824;BME280;62154;54.914;73.444;2022-10-19T00:58:24;100072.56;;;3.11;100.00
73824;BME280;62154;54.914;73.444;2022-10-19T01:00:54;100049.63;;;3.04;100.00
73824;BME280;62154;54.914;73.444;2022-10-19T01:03:22;100090.81;;;3.27;100.00
73824;BME280;62154;54.914;73.444;2022-10-19T01:05:49;100090.75;;;3.35;100.00
73824;BME280;62154;54.914;73.444;2022-10-19T01:08:17;100130.84;;;3.59;100.00
73824;BME280;62154;54.914;73.444;2022-10-19T01:11:12;100125.50;;;3.66;100.00
73824;BME280;62154;54.914;73.444;2022-10-19T01:14:09;100123.44;;;3.68;100.00
73824;BME280;62154;54.914;73.444;2022-10-19T01:31:26;100123.19;;;3.78;100.00
73824;BME280;62154;54.914;73.444;2022-10-19T01:34:18;100115.81;;;3.79;100.00
73824;BME280;62154;54.914;73.444;2022-10-19T01:37:00;100079.97;;;3.57;100.00
73824;BME280;62154;54.914;73.444;2022-10-19T01:39:42;100072.06;;;3.62;100.00
73824;BME280;62154;54.914;73.444;2022-10-19T01:42:19;100089.25;;;3.79;100.00
73824;BME280;62154;54.914;73.444;2022-10-19T01:45:02;100095.22;;;3.83;100.00
73824;BME280;62154;54.914;73.444;2022-10-19T01:47:36;100087.72;;;3.77;100.00
73824;BME280;62154;54.914;73.444;2022-10-19T01:50:21;100115.03;;;3.93;100.00
73824;BME280;62154;54.914;73.444;2022-10-19T01:52:53;100058.22;;;3.79;100.00
73824;BME280;62154;54.914;73.444;2022-10-19T01:55:21;100093.56;;;3.97;100.00
73824;BME280;62154;54.914;73.444;2022-10-19T01:57:54;100042.53;;;3.72;100.00
73824;BME280;62154;54.914;73.444;2022-10-19T02:00:24;100099.84;;;4.05;100.00
73824;BME280;62154;54.914;73.444;2022-10-19T02:02:54;100035.19;;;3.65;100.00
73824;BME280;62154;54.914;73.444;2022-10-19T02:05:33;100060.06;;;3.86;100.00
73824;BME280;62154;54.914;73.444;2022-10-19T02:08:05;100083.19;;;4.07;100.00
73824;BME280;62154;54.914;73.444;2022-10-19T02:10:34;100036.13;;;3.80;100.00
73824;BME280;62154;54.914;73.444;2022-10-19T02:13:04;100083.69;;;4.11;100.00
73824;BME280;62154;54.914;73.444;2022-10-19T02:15:34;100036.97;;;3.81;100.00
73824;BME280;62154;54.914;73.444;2022-10-19T02:18:05;100062.81;;;4.01;100.00
73824;BME280;62154;54.914;73.444;2022-10-19T02:20:43;100077.22;;;4.03;100.00
73824;BME280;62154;54.914;73.444;2022-10-19T02:23:12;100074.28;;;4.05;100.00
73824;BME280;62154;54.914;73.444;2022-10-19T02:25:41;100058.50;;;3.84;100.00
73824;BME280;62154;54.914;73.444;2022-10-19T02:28:18;100101.63;;;3.98;100.00
73824;BME280;62154;54.914;73.444;2022-10-19T02:30:45;100044.69;;;3.77;100.00
73824;BME280;62154;54.914;73.444;2022-10-19T02:33:13;100080.22;;;3.94;100.00
73824;BME280;62154;54.914;73.444;2022-10-19T02:35:40;99989.00;;;3.38;100.00
73824;BME280;62154;54.914;73.444;2022-10-19T02:38:09;100040.13;;;3.69;100.00
73824;BME280;62154;54.914;73.444;2022-10-19T02:40:40;100043.84;;;3.77;100.00
73824;BME280;62154;54.914;73.444;2022-10-19T02:43:14;100090.25;;;4.01;100.00
73824;BME280;62154;54.914;73.444;2022-10-19T02:45:55;100091.13;;;4.02;100.00
73824;BME280;62154;54.914;73.444;2022-10-19T02:48:25;100069.81;;;3.89;100.00
73824;BME280;62154;54.914;73.444;2022-10-19T02:50:53;100056.44;;;3.86;100.00
73824;BME280;62154;54.914;73.444;2022-10-19T02:53:20;100092.06;;;4.09;100.00
73824;BME280;62154;54.914;73.444;2022-10-19T02:55:48;100090.13;;;4.18;100.00
73824;BME280;62154;54.914;73.444;2022-10-19T02:58:19;100084.75;;;4.24;100.00
73824;BME280;62154;54.914;73.444;2022-10-19T03:00:51;100068.47;;;4.23;100.00
73824;BME280;62154;54.914;73.444;2022-10-19T03:03:18;100083.72;;;4.40;100.00
73824;BME280;62154;54.914;73.444;2022-10-19T03:05:45;100026.84;;;4.19;100.00
73824;BME280;62154;54.914;73.444;2022-10-19T03:08:12;100071.91;;;4.55;100.00
73824;BME280;62154;54.914;73.444;2022-10-19T03:10:39;100055.44;;;4.55;100.00
73824;BME280;62154;54.914;73.444;2022-10-19T03:13:06;100015.28;;;4.39;100.00
73824;BME280;62154;54.914;73.444;2022-10-19T03:15:38;100024.28;;;4.48;100.00
73824;BME280;62154;54.914;73.444;2022-10-19T03:18:05;100023.91;;;4.51;100.00
73824;BME280;62154;54.914;73.444;2022-10-19T03:20:31;100019.16;;;4.60;100.00
73824;BME280;62154;54.914;73.444;2022-10-19T03:23:09;100074.38;;;4.95;100.00
73824;BME280;62154;54.914;73.444;2022-10-19T03:25:36;100010.44;;;4.71;100.00
73824;BME280;62154;54.914;73.444;2022-10-19T03:28:03;100014.41;;;4.83;100.00
73824;BME280;62154;54.914;73.444;2022-10-19T03:30:30;100017.91;;;4.92;100.00
73824;BME280;62154;54.914;73.444;2022-10-19T03:32:57;100056.97;;;5.24;100.00
73824;BME280;62154;54.914;73.444;2022-10-19T03:35:24;99991.91;;;5.10;100.00
73824;BME280;62154;54.914;73.444;2022-10-19T03:37:51;99999.84;;;5.19;100.00
73824;BME280;62154;54.914;73.444;2022-10-19T03:40:18;100026.84;;;5.52;100.00
73824;BME280;62154;54.914;73.444;2022-10-19T03:42:45;99994.09;;;5.36;100.00
73824;BME280;62154;54.914;73.444;2022-10-19T03:45:12;100046.56;;;5.78;100.00
73824;BME280;62154;54.914;73.444;2022-10-19T03:47:50;100011.91;;;5.62;99.79
73824;BME280;62154;54.914;73.444;2022-10-19T03:50:17;100047.69;;;5.90;99.63
73824;BME280;62154;54.914;73.444;2022-10-19T03:52:48;100036.31;;;5.93;99.31
73824;BME280;62154;54.914;73.444;2022-10-19T03:55:16;99922.06;;;5.26;99.11
73824;BME280;62154;54.914;73.444;2022-10-19T03:57:43;100038.09;;;6.01;99.25
73824;BME280;62154;54.914;73.444;2022-10-19T04:00:10;100006.84;;;5.87;98.65
73824;BME280;62154;54.914;73.444;2022-10-19T04:02:49;100015.88;;;6.02;98.40
73824;BME280;62154;54.914;73.444;2022-10-19T04:05:16;99987.78;;;5.85;97.97
73824;BME280;62154;54.914;73.444;2022-10-19T04:07:43;100019.75;;;6.08;97.96
73824;BME280;62154;54.914;73.444;2022-10-19T04:10:10;100026.78;;;6.17;97.79
73824;BME280;62154;54.914;73.444;2022-10-19T04:12:37;100033.22;;;6.25;98.08
73824;BME280;62154;54.914;73.444;2022-10-19T04:15:04;100027.94;;;6.30;97.66
73824;BME280;62154;54.914;73.444;2022-10-19T04:17:31;99986.31;;;6.11;97.61
73824;BME280;62154;54.914;73.444;2022-10-19T04:19:59;100018.91;;;6.43;97.73
73824;BME280;62154;54.914;73.444;2022-10-19T04:22:36;100014.31;;;6.50;97.60
73824;BME280;62154;54.914;73.444;2022-10-19T04:25:04;100028.50;;;6.53;97.22
73824;BME280;62154;54.914;73.444;2022-10-19T04:27:39;100023.88;;;6.54;97.08
73824;BME280;62154;54.914;73.444;2022-10-19T04:30:16;100028.56;;;6.60;97.14
73824;BME280;62154;54.914;73.444;2022-10-19T04:32:53;100026.91;;;6.66;97.14
73824;BME280;62154;54.914;73.444;2022-10-19T04:35:26;100017.78;;;6.65;96.53
73824;BME280;62154;54.914;73.444;2022-10-19T04:37:53;99986.53;;;6.45;96.45
73824;BME280;62154;54.914;73.444;2022-10-19T04:40:20;99943.78;;;6.20;96.16
73824;BME280;62154;54.914;73.444;2022-10-19T04:42:47;99979.09;;;6.39;96.44
73824;BME280;62154;54.914;73.444;2022-10-19T04:45:14;99988.03;;;6.47;96.26
73824;BME280;62154;54.914;73.444;2022-10-19T04:47:46;99988.44;;;6.51;95.98
73824;BME280;62154;54.914;73.444;2022-10-19T04:50:13;99962.34;;;6.40;95.84
73824;BME280;62154;54.914;73.444;2022-10-19T04:52:43;99994.66;;;6.60;95.78
73824;BME280;62154;54.914;73.444;2022-10-19T04:55:10;100015.66;;;6.67;95.75
73824;BME280;62154;54.914;73.444;2022-10-19T04:57:37;100012.50;;;6.71;95.86
73824;BME280;62154;54.914;73.444;2022-10-19T05:00:08;99967.88;;;6.47;95.92
73824;BME280;62154;54.914;73.444;2022-10-19T05:02:46;100003.16;;;6.65;95.72
73824;BME280;62154;54.914;73.444;2022-10-19T05:05:13;100001.06;;;6.74;96.18
73824;BME280;62154;54.914;73.444;2022-10-19T05:07:50;99997.72;;;6.78;96.13
73824;BME280;62154;54.914;73.444;2022-10-19T05:10:17;99960.09;;;6.57;96.07
73824;BME280;62154;54.914;73.444;2022-10-19T05:12:46;99989.66;;;6.77;95.72
73824;BME280;62154;54.914;73.444;2022-10-19T05:15:13;99991.38;;;6.78;95.79
73824;BME280;62154;54.914;73.444;2022-10-19T05:17:40;99989.44;;;6.78;95.46
73824;BME280;62154;54.914;73.444;2022-10-19T05:20:18;99991.59;;;6.83;95.44
73824;BME280;62154;54.914;73.444;2022-10-19T05:22:45;99992.44;;;6.83;95.16
73824;BME280;62154;54.914;73.444;2022-10-19T05:25:12;99970.59;;;6.75;95.08
73824;BME280;62154;54.914;73.444;2022-10-19T05:27:50;99973.72;;;6.72;94.97
73824;BME280;62154;54.914;73.444;2022-10-19T05:30:22;99988.41;;;6.86;94.87
73824;BME280;62154;54.914;73.444;2022-10-19T05:32:49;99961.00;;;6.71;94.54
73824;BME280;62154;54.914;73.444;2022-10-19T05:35:16;99983.13;;;6.84;94.07
73824;BME280;62154;54.914;73.444;2022-10-19T05:37:43;99968.44;;;6.77;93.96
73824;BME280;62154;54.914;73.444;2022-10-19T05:40:10;99978.06;;;6.88;93.83
73824;BME280;62154;54.914;73.444;2022-10-19T05:42:37;99949.81;;;6.79;93.41
73824;BME280;62154;54.914;73.444;2022-10-19T05:45:14;99937.53;;;6.75;93.17
73824;BME280;62154;54.914;73.444;2022-10-19T05:47:41;99940.06;;;6.77;93.20
73824;BME280;62154;54.914;73.444;2022-10-19T05:50:09;99961.53;;;6.95;92.53
73824;BME280;62154;54.914;73.444;2022-10-19T05:52:36;99971.94;;;6.99;92.38
73824;BME280;62154;54.914;73.444;2022-10-19T05:55:13;99914.22;;;6.78;92.34
73824;BME280;62154;54.914;73.444;2022-10-19T05:57:40;99937.97;;;6.85;92.05
73824;BME280;62154;54.914;73.444;2022-10-19T06:00:07;99936.72;;;6.95;92.22
73824;BME280;62154;54.914;73.444;2022-10-19T06:02:39;99960.72;;;7.08;92.07
73824;BME280;62154;54.914;73.444;2022-10-19T06:05:06;99936.78;;;7.08;92.24
73824;BME280;62154;54.914;73.444;2022-10-19T06:07:33;99956.50;;;7.18;91.82
73824;BME280;62154;54.914;73.444;2022-10-19T06:10:10;99910.47;;;7.06;91.88
73824;BME280;62154;54.914;73.444;2022-10-19T06:12:37;99914.28;;;7.11;91.34
73824;BME280;62154;54.914;73.444;2022-10-19T06:15:05;99893.72;;;7.07;90.88
73824;BME280;62154;54.914;73.444;2022-10-19T06:17:32;99949.56;;;7.43;90.38
73824;BME280;62154;54.914;73.444;2022-10-19T06:19:59;99942.75;;;7.39;89.27
73824;BME280;62154;54.914;73.444;2022-10-19T06:22:26;99935.13;;;7.41;89.15
73824;BME280;62154;54.914;73.444;2022-10-19T06:24:53;99912.00;;;7.28;88.54
73824;BME280;62154;54.914;73.444;2022-10-19T06:27:21;99942.75;;;7.39;87.67
73824;BME280;62154;54.914;73.444;2022-10-19T06:29:47;99938.94;;;7.46;87.94
73824;BME280;62154;54.914;73.444;2022-10-19T06:32:15;99928.31;;;7.43;86.94
73824;BME280;62154;54.914;73.444;2022-10-19T06:34:41;99928.34;;;7.50;86.92
73824;BME280;62154;54.914;73.444;2022-10-19T06:37:08;99938.31;;;7.58;86.16
73824;BME280;62154;54.914;73.444;2022-10-19T06:39:36;99928.13;;;7.51;85.69
73824;BME280;62154;54.914;73.444;2022-10-19T06:42:03;99888.88;;;7.36;85.42
73824;BME280;62154;54.914;73.444;2022-10-19T06:44:30;99920.94;;;7.64;85.47
73824;BME280;62154;54.914;73.444;2022-10-19T06:46:56;99913.91;;;7.68;85.92
73824;BME280;62154;54.914;73.444;2022-10-19T06:49:28;99892.69;;;7.62;84.73
73824;BME280;62154;54.914;73.444;2022-10-19T06:52:06;99928.56;;;7.82;83.58
73824;BME280;62154;54.914;73.444;2022-10-19T06:54:42;99862.56;;;7.60;82.58
73824;BME280;62154;54.914;73.444;2022-10-19T06:57:09;99903.72;;;7.82;81.88
73824;BME280;62154;54.914;73.444;2022-10-19T06:59:36;99903.28;;;7.85;82.31
73824;BME280;62154;54.914;73.444;2022-10-19T07:02:04;99877.81;;;7.76;82.68
73824;BME280;62154;54.914;73.444;2022-10-19T07:04:41;99884.59;;;7.87;82.23
73824;BME280;62154;54.914;73.444;2022-10-19T07:07:08;99899.84;;;7.96;81.50
73824;BME280;62154;54.914;73.444;2022-10-19T07:09:35;99897.94;;;8.04;80.52
73824;BME280;62154;54.914;73.444;2022-10-19T07:12:02;99865.06;;;7.82;79.68
73824;BME280;62154;54.914;73.444;2022-10-19T07:14:29;99903.22;;;8.12;78.92
73824;BME280;62154;54.914;73.444;2022-10-19T07:16:57;99901.09;;;8.14;78.19
73824;BME280;62154;54.914;73.444;2022-10-19T07:19:26;99855.91;;;7.95;78.23
73824;BME280;62154;54.914;73.444;2022-10-19T07:21:53;99875.59;;;8.19;77.70
73824;BME280;62154;54.914;73.444;2022-10-19T07:24:20;99841.47;;;7.93;77.78
73824;BME280;62154;54.914;73.444;2022-10-19T07:26:58;99885.75;;;8.31;78.66
73824;BME280;62154;54.914;73.444;2022-10-19T07:29:25;99891.03;;;8.40;78.37
73824;BME280;62154;54.914;73.444;2022-10-19T07:31:52;99865.97;;;8.48;77.98
73824;BME280;62154;54.914;73.444;2022-10-19T07:34:19;99872.50;;;8.60;76.39
73824;BME280;62154;54.914;73.444;2022-10-19T07:36:46;99864.16;;;8.67;75.57
73824;BME280;62154;54.914;73.444;2022-10-19T07:39:18;99829.59;;;8.51;75.47
73824;BME280;62154;54.914;73.444;2022-10-19T07:41:46;99867.97;;;8.73;73.59
73824;BME280;62154;54.914;73.444;2022-10-19T07:44:13;99824.94;;;8.52;73.73
73824;BME280;62154;54.914;73.444;2022-10-19T07:46:51;99820.25;;;8.45;73.86
73824;BME280;62154;54.914;73.444;2022-10-19T07:49:18;99841.75;;;8.50;73.27
73824;BME280;62154;54.914;73.444;2022-10-19T07:51:46;99836.81;;;8.52;74.20
73824;BME280;62154;54.914;73.444;2022-10-19T07:54:13;99808.78;;;8.48;73.87
73824;BME280;62154;54.914;73.444;2022-10-19T07:56:42;99831.84;;;8.68;73.32
73824;BME280;62154;54.914;73.444;2022-10-19T07:59:09;99841.81;;;8.75;73.14
73824;BME280;62154;54.914;73.444;2022-10-19T08:01:39;99826.78;;;8.64;73.76
73824;BME280;62154;54.914;73.444;2022-10-19T08:04:07;99836.31;;;8.69;73.33
73824;BME280;62154;54.914;73.444;2022-10-19T08:06:34;99831.63;;;8.69;74.23
73824;BME280;62154;54.914;73.444;2022-10-19T08:09:02;99828.41;;;8.72;74.19
73824;BME280;62154;54.914;73.444;2022-10-19T08:11:32;99824.41;;;8.68;73.12
73824;BME280;62154;54.914;73.444;2022-10-19T08:14:00;99810.84;;;8.60;72.01
73824;BME280;62154;54.914;73.444;2022-10-19T08:16:36;99832.94;;;8.67;71.18
73824;BME280;62154;54.914;73.444;2022-10-19T08:19:13;99815.53;;;8.59;69.67
73824;BME280;62154;54.914;73.444;2022-10-19T08:21:43;99821.00;;;8.66;70.69
73824;BME280;62154;54.914;73.444;2022-10-19T08:24:13;99816.38;;;8.60;70.62
73824;BME280;62154;54.914;73.444;2022-10-19T08:26:40;99801.06;;;8.57;70.67
73824;BME280;62154;54.914;73.444;2022-10-19T08:29:18;99819.81;;;8.55;69.80
73824;BME280;62154;54.914;73.444;2022-10-19T08:31:47;99791.19;;;8.36;70.54
73824;BME280;62154;54.914;73.444;2022-10-19T08:34:14;99818.94;;;8.55;71.05
73824;BME280;62154;54.914;73.444;2022-10-19T08:36:41;99809.88;;;8.47;70.67
73824;BME280;62154;54.914;73.444;2022-10-19T08:39:09;99773.63;;;8.24;69.71
73824;BME280;62154;54.914;73.444;2022-10-19T08:47:08;99799.78;;;8.60;68.48
73824;BME280;62154;54.914;73.444;2022-10-19T08:49:40;99729.03;;;8.20;68.51
73824;BME280;62154;54.914;73.444;2022-10-19T08:52:18;99798.06;;;8.65;67.85
73824;BME280;62154;54.914;73.444;2022-10-19T08:55:00;99765.00;;;8.45;67.26
73824;BME280;62154;54.914;73.444;2022-10-19T08:57:59;99790.00;;;8.64;67.54
73824;BME280;62154;54.914;73.444;2022-10-19T09:00:42;99777.69;;;8.60;67.62
73824;BME280;62154;54.914;73.444;2022-10-19T09:03:37;99788.72;;;8.67;68.65
73824;BME280;62154;54.914;73.444;2022-10-19T09:08:52;99783.53;;;8.77;67.84
73824;BME280;62154;54.914;73.444;2022-10-19T09:11:24;99756.16;;;8.69;67.90
73824;BME280;62154;54.914;73.444;2022-10-19T09:14:09;99736.63;;;8.63;67.65
73824;BME280;62154;54.914;73.444;2022-10-19T09:16:41;99742.50;;;8.74;68.72
73824;BME280;62154;54.914;73.444;2022-10-19T09:19:21;99771.69;;;8.95;67.07
73824;BME280;62154;54.914;73.444;2022-10-19T09:26:54;99773.22;;;8.91;68.08
73824;BME280;62154;54.914;73.444;2022-10-19T09:32:36;99771.59;;;8.83;68.02
73824;BME280;62154;54.914;73.444;2022-10-19T09:35:29;99763.13;;;8.78;68.27
73824;BME280;62154;54.914;73.444;2022-10-19T09:37:58;99769.53;;;8.72;68.34
73824;BME280;62154;54.914;73.444;2022-10-19T09:40:28;99735.03;;;8.49;68.94
73824;BME280;62154;54.914;73.444;2022-10-19T09:42:56;99767.22;;;8.69;69.05
73824;BME280;62154;54.914;73.444;2022-10-19T09:45:31;99763.22;;;8.64;69.02
73824;BME280;62154;54.914;73.444;2022-10-19T09:48:31;99724.03;;;8.36;68.33
73824;BME280;62154;54.914;73.444;2022-10-19T09:51:01;99761.16;;;8.53;68.66
73824;BME280;62154;54.914;73.444;2022-10-19T09:53:29;99761.56;;;8.57;69.57
73824;BME280;62154;54.914;73.444;2022-10-19T09:56:06;99743.94;;;8.51;68.60
73824;BME280;62154;54.914;73.444;2022-10-19T09:58:46;99712.81;;;8.30;68.83
73824;BME280;62154;54.914;73.444;2022-10-19T10:01:38;99741.41;;;8.49;68.08
73824;BME280;62154;54.914;73.444;2022-10-19T10:04:07;99753.94;;;8.52;67.02
73824;BME280;62154;54.914;73.444;2022-10-19T10:06:38;99655.91;;;7.91;66.09
73824;BME280;62154;54.914;73.444;2022-10-19T10:09:06;99762.47;;;8.44;66.13
73824;BME280;62154;54.914;73.444;2022-10-19T10:11:35;99737.94;;;8.22;65.40
73824;BME280;62154;54.914;73.444;2022-10-19T10:14:31;99756.56;;;8.33;65.00
73824;BME280;62154;54.914;73.444;2022-10-19T10:17:18;99756.78;;;8.32;65.75
73824;BME280;62154;54.914;73.444;2022-10-19T10:20:03;99749.59;;;8.24;65.50
73824;BME280;62154;54.914;73.444;2022-10-19T10:22:34;99743.28;;;8.17;65.97
73824;BME280;62154;54.914;73.444;2022-10-19T10:25:16;99712.78;;;7.98;65.83
73824;BME280;62154;54.914;73.444;2022-10-19T10:27:57;99736.66;;;8.18;65.94
73824;BME280;62154;54.914;73.444;2022-10-19T10:30:26;99757.09;;;8.17;66.27
73824;BME280;62154;54.914;73.444;2022-10-19T10:32:55;99701.53;;;7.93;66.75
73824;BME280;62154;54.914;73.444;2022-10-19T10:35:34;99731.81;;;8.13;66.46
73824;BME280;62154;54.914;73.444;2022-10-19T10:38:13;99703.84;;;7.96;67.16
73824;BME280;62154;54.914;73.444;2022-10-19T10:40:57;99745.59;;;8.20;67.26
73824;BME280;62154;54.914;73.444;2022-10-19T10:43:30;99729.03;;;8.20;66.33
73824;BME280;62154;54.914;73.444;2022-10-19T10:46:13;99660.66;;;7.77;66.54
73824;BME280;62154;54.914;73.444;2022-10-19T10:48:43;99732.00;;;8.19;66.02
73824;BME280;62154;54.914;73.444;2022-10-19T10:54:23;99720.56;;;8.15;66.30
73824;BME280;62154;54.914;73.444;2022-10-19T10:57:13;99715.03;;;8.15;66.33
73824;BME280;62154;54.914;73.444;2022-10-19T11:00:11;99712.91;;;8.10;66.15
73824;BME280;62154;54.914;73.444;2022-10-19T11:05:30;99709.09;;;8.11;65.89
73824;BME280;62154;54.914;73.444;2022-10-19T11:10:34;99670.53;;;7.91;65.99
73824;BME280;62154;54.914;73.444;2022-10-19T11:13:04;99724.59;;;8.12;65.81
73824;BME280;62154;54.914;73.444;2022-10-19T11:15:53;99714.63;;;8.11;65.39
73824;BME280;62154;54.914;73.444;2022-10-19T11:18:33;99699.81;;;7.99;65.90
73824;BME280;62154;54.914;73.444;2022-10-19T11:21:30;99715.91;;;8.09;65.42
73824;BME280;62154;54.914;73.444;2022-10-19T11:29:42;99711.91;;;8.05;65.68
73824;BME280;62154;54.914;73.444;2022-10-19T11:32:28;99676.13;;;7.84;66.02
73824;BME280;62154;54.914;73.444;2022-10-19T11:35:50;99661.91;;;7.81;66.25
73824;BME280;62154;54.914;73.444;2022-10-19T11:41:10;99709.56;;;8.02;66.65
73824;BME280;62154;54.914;73.444;2022-10-19T11:46:15;99681.34;;;7.93;66.45
73824;BME280;62154;54.914;73.444;2022-10-19T11:49:07;99711.03;;;8.04;66.56
73824;BME280;62154;54.914;73.444;2022-10-19T11:51:49;99691.09;;;8.02;66.31
73824;BME280;62154;54.914;73.444;2022-10-19T11:54:26;99700.84;;;8.05;66.29
73824;BME280;62154;54.914;73.444;2022-10-19T11:57:18;99692.16;;;8.01;66.56
73824;BME280;62154;54.914;73.444;2022-10-19T12:00:07;99652.09;;;7.85;66.64
73824;BME280;62154;54.914;73.444;2022-10-19T12:03:03;99682.81;;;8.02;66.55
73824;BME280;62154;54.914;73.444;2022-10-19T12:14:14;99686.59;;;8.08;67.13
73824;BME280;62154;54.914;73.444;2022-10-19T12:16:49;99678.78;;;8.05;66.75
73824;BME280;62154;54.914;73.444;2022-10-19T12:19:28;99652.97;;;7.79;66.88
73824;BME280;62154;54.914;73.444;2022-10-19T12:21:59;99698.75;;;8.00;67.54
73824;BME280;62154;54.914;73.444;2022-10-19T12:24:29;99689.44;;;7.94;68.46
73824;BME280;62154;54.914;73.444;2022-10-19T12:26:58;99666.41;;;7.75;68.50
73824;BME280;62154;54.914;73.444;2022-10-19T12:29:33;99661.16;;;7.60;68.32
73824;BME280;62154;54.914;73.444;2022-10-19T12:32:03;99686.78;;;7.74;69.03
73824;BME280;62154;54.914;73.444;2022-10-19T12:35:06;99677.91;;;7.65;69.35
73824;BME280;62154;54.914;73.444;2022-10-19T12:37:45;99670.28;;;7.54;69.91
73824;BME280;62154;54.914;73.444;2022-10-19T12:40:31;99700.56;;;7.67;70.37
73824;BME280;62154;54.914;73.444;2022-10-19T12:46:09;99700.38;;;7.62;71.28
73824;BME280;62154;54.914;73.444;2022-10-19T12:48:40;99693.19;;;7.55;72.69
73824;BME280;62154;54.914;73.444;2022-10-19T12:51:10;99695.56;;;7.44;74.32
73824;BME280;62154;54.914;73.444;2022-10-19T12:56:20;99666.41;;;7.10;77.30
73824;BME280;62154;54.914;73.444;2022-10-19T12:58:56;99678.47;;;7.22;77.74
73824;BME280;62154;54.914;73.444;2022-10-19T13:04:08;99620.44;;;6.77;79.25
73824;BME280;62154;54.914;73.444;2022-10-19T13:07:07;99656.44;;;7.02;79.55
73824;BME280;62154;54.914;73.444;2022-10-19T13:09:39;99689.06;;;7.18;79.57
73824;BME280;62154;54.914;73.444;2022-10-19T13:22:43;99713.03;;;7.11;81.95
73824;BME280;62154;54.914;73.444;2022-10-19T13:25:39;99702.25;;;7.03;84.62
73824;BME280;62154;54.914;73.444;2022-10-19T13:38:30;99715.38;;;6.67;90.11
73824;BME280;62154;54.914;73.444;2022-10-19T13:46:18;99688.69;;;6.48;93.28
73824;BME280;62154;54.914;73.444;2022-10-19T13:54:56;99701.38;;;6.35;96.49
73824;BME280;62154;54.914;73.444;2022-10-19T14:00:43;99702.63;;;6.26;97.45
73824;BME280;62154;54.914;73.444;2022-10-19T14:08:45;99686.94;;;6.20;99.26
73824;BME280;62154;54.914;73.444;2022-10-19T14:11:26;99641.97;;;5.93;99.31
73824;BME280;62154;54.914;73.444;2022-10-19T14:16:58;99681.00;;;6.23;100.00
73824;BME280;62154;54.914;73.444;2022-10-19T14:19:47;99633.09;;;5.97;100.00
73824;BME280;62154;54.914;73.444;2022-10-19T14:22:29;99671.47;;;6.26;100.00
73824;BME280;62154;54.914;73.444;2022-10-19T14:27:45;99609.81;;;5.93;100.00
73824;BME280;62154;54.914;73.444;2022-10-19T14:30:29;99617.47;;;6.04;100.00
73824;BME280;62154;54.914;73.444;2022-10-19T14:32:59;99613.47;;;6.07;100.00
73824;BME280;62154;54.914;73.444;2022-10-19T14:35:35;99603.50;;;6.06;100.00
73824;BME280;62154;54.914;73.444;2022-10-19T14:38:08;99660.28;;;6.34;100.00
73824;BME280;62154;54.914;73.444;2022-10-19T14:40:41;99646.31;;;6.35;100.00
73824;BME280;62154;54.914;73.444;2022-10-19T14:43:29;99642.72;;;6.28;100.00
73824;BME280;62154;54.914;73.444;2022-10-19T14:48:38;99597.78;;;6.01;100.00
73824;BME280;62154;54.914;73.444;2022-10-19T14:54:07;99618.97;;;6.14;100.00
73824;BME280;62154;54.914;73.444;2022-10-19T14:56:54;99646.53;;;6.34;100.00
73824;BME280;62154;54.914;73.444;2022-10-19T14:59:51;99635.69;;;6.26;100.00
73824;BME280;62154;54.914;73.444;2022-10-19T15:02:36;99599.50;;;6.02;100.00
73824;BME280;62154;54.914;73.444;2022-10-19T15:05:06;99606.88;;;6.01;100.00
73824;BME280;62154;54.914;73.444;2022-10-19T15:07:42;99632.72;;;6.14;100.00
73824;BME280;62154;54.914;73.444;2022-10-19T15:10:36;99627.66;;;6.11;100.00
73824;BME280;62154;54.914;73.444;2022-10-19T15:13:05;99636.97;;;6.16;100.00
73824;BME280;62154;54.914;73.444;2022-10-19T15:15:34;99621.94;;;6.06;100.00
73824;BME280;62154;54.914;73.444;2022-10-19T15:18:04;99623.00;;;6.11;100.00
73824;BME280;62154;54.914;73.444;2022-10-19T15:20:36;99595.19;;;5.93;100.00
73824;BME280;62154;54.914;73.444;2022-10-19T15:23:45;99629.56;;;6.17;100.00
73824;BME280;62154;54.914;73.444;2022-10-19T15:28:48;99611.97;;;6.18;100.00